Time;durP1;ratioP1;P1;durP2;ratioP2;P2;SDS_P1;SDS_P2;PMS_P1;PMS_P2;Temp;Humidity;BMP_temperature;BMP_pressure;BME280_temperature;BME280_humidity;BME280_pressure;Samples;Min_cycle;Max_cycle;Signal;HPM_P1;HPM_P2
2022/04/19 00:00:44;;;;;;;16.00;10.38;;;;;;;5.81;100.00;101587.34;4978784;28;22739;-70
2022/04/19 00:03:11;;;;;;;18.95;10.35;;;;;;;5.72;100.00;101583.84;4973893;28;20062;-71
2022/04/19 00:05:37;;;;;;;20.98;10.23;;;;;;;5.68;100.00;101584.31;4977916;28;20029;-70
2022/04/19 00:08:04;;;;;;;20.85;10.85;;;;;;;5.65;100.00;101584.63;4963187;28;20057;-70
2022/04/19 00:10:30;;;;;;;17.90;10.25;;;;;;;5.65;100.00;101581.97;4988961;28;20069;-70
2022/04/19 00:12:56;;;;;;;19.77;11.02;;;;;;;5.52;100.00;101573.59;4955207;28;21026;-70
2022/04/19 00:15:23;;;;;;;19.02;10.75;;;;;;;5.38;100.00;101581.22;4973780;28;20037;-70
2022/04/19 00:17:48;;;;;;;22.65;11.07;;;;;;;5.21;100.00;101574.13;4957069;28;20185;-70
2022/04/19 00:20:14;;;;;;;20.05;11.85;;;;;;;5.12;100.00;101575.06;4970655;28;20465;-70
2022/04/19 00:22:39;;;;;;;22.88;11.88;;;;;;;5.00;100.00;101574.50;4976420;28;20038;-70
2022/04/19 00:25:06;;;;;;;19.58;11.77;;;;;;;4.93;100.00;101571.63;4962774;28;21075;-71
2022/04/19 00:27:32;;;;;;;22.02;12.85;;;;;;;4.83;100.00;101562.91;4972766;28;20026;-70
2022/04/19 00:29:58;;;;;;;24.60;12.77;;;;;;;4.75;100.00;101569.03;4955917;28;20056;-70
2022/04/19 00:32:24;;;;;;;21.27;13.07;;;;;;;4.71;100.00;101561.50;4970361;28;20478;-70
2022/04/19 00:34:51;;;;;;;21.65;13.27;;;;;;;4.69;100.00;101563.47;4960751;28;20068;-70
2022/04/19 00:37:18;;;;;;;29.65;14.82;;;;;;;4.70;100.00;101559.81;4975780;28;20026;-70
2022/04/19 00:39:43;;;;;;;22.52;13.88;;;;;;;4.70;100.00;101558.00;4968860;28;20029;-70
2022/04/19 00:42:09;;;;;;;20.98;12.23;;;;;;;4.64;100.00;101555.13;4962140;28;20155;-69
2022/04/19 00:44:37;;;;;;;26.00;12.63;;;;;;;4.59;100.00;101552.06;4957494;28;20085;-69
2022/04/19 00:47:07;;;;;;;24.17;13.00;;;;;;;4.49;100.00;101553.00;4959563;28;20053;-70
2022/04/19 00:49:36;;;;;;;22.83;14.35;;;;;;;4.41;100.00;101542.25;4975713;28;20121;-68
2022/04/19 00:52:01;;;;;;;21.27;13.27;;;;;;;4.33;100.00;101544.88;4962936;28;20057;-69
2022/04/19 00:54:27;;;;;;;22.40;12.93;;;;;;;4.27;100.00;101550.81;4972228;28;20053;-68
2022/04/19 00:56:56;;;;;;;24.20;13.43;;;;;;;4.24;100.00;101549.28;4956552;28;20057;-69
2022/04/19 00:59:22;;;;;;;23.38;13.15;;;;;;;4.25;100.00;101547.50;4972143;28;20029;-69
2022/04/19 01:01:47;;;;;;;26.92;13.80;;;;;;;4.27;100.00;101548.16;4965031;28;20034;-70
2022/04/19 01:04:13;;;;;;;23.17;13.93;;;;;;;4.31;100.00;101558.34;4955144;28;20054;-69
2022/04/19 01:06:38;;;;;;;21.92;13.38;;;;;;;4.24;100.00;101548.47;4968750;28;20072;-69
2022/04/19 01:09:04;;;;;;;23.60;13.45;;;;;;;4.16;100.00;101545.72;4949797;28;24014;-69
2022/04/19 01:14:14;;;;;;;21.98;13.13;;;;;;;4.06;100.00;101557.31;4954215;28;20053;-69
2022/04/19 01:16:42;;;;;;;23.95;13.65;;;;;;;4.09;100.00;101556.16;4969234;28;20038;-69
2022/04/19 01:19:15;;;;;;;20.45;12.38;;;;;;;4.04;100.00;101553.97;4969055;28;22719;-69
2022/04/19 01:21:45;;;;;;;20.30;11.50;;;;;;;3.94;100.00;101545.22;4969406;28;20040;-69
2022/04/19 01:24:15;;;;;;;20.63;13.25;;;;;;;3.81;100.00;101550.91;4953934;28;20528;-69
2022/04/19 01:26:41;;;;;;;22.38;12.45;;;;;;;3.71;100.00;101542.13;4967571;28;20081;-69
2022/04/19 01:29:08;;;;;;;17.95;11.52;;;;;;;3.80;100.00;101551.06;4968335;28;20037;-69
2022/04/19 01:31:33;;;;;;;20.88;12.70;;;;;;;3.85;100.00;101546.13;4953632;28;20154;-69
2022/04/19 01:33:59;;;;;;;24.40;11.75;;;;;;;3.97;100.00;101546.75;4969760;28;20916;-70
2022/04/19 01:36:24;;;;;;;20.50;11.27;;;;;;;3.99;100.00;101540.25;4952764;28;20049;-69
2022/04/19 01:38:51;;;;;;;19.17;11.90;;;;;;;4.00;100.00;101541.94;4958064;28;20042;-69
2022/04/19 01:41:16;;;;;;;21.98;12.13;;;;;;;3.98;100.00;101549.25;4956407;28;20050;-69
2022/04/19 01:43:44;;;;;;;18.20;10.18;;;;;;;3.89;100.00;101547.47;4966990;28;20100;-69
2022/04/19 01:46:09;;;;;;;20.85;11.55;;;;;;;3.80;100.00;101545.75;4952633;28;20033;-69
2022/04/19 01:48:35;;;;;;;23.17;11.85;;;;;;;3.76;100.00;101544.38;4968565;28;20377;-69
2022/04/19 01:51:01;;;;;;;20.35;11.40;;;;;;;3.68;100.00;101549.59;4969649;28;20173;-69
2022/04/19 01:53:27;;;;;;;18.33;12.07;;;;;;;3.62;100.00;101542.22;4953620;28;20616;-69
2022/04/19 01:55:52;;;;;;;17.67;11.23;;;;;;;3.54;100.00;101543.78;4965217;28;20045;-69
2022/04/19 01:58:18;;;;;;;19.58;11.93;;;;;;;3.41;100.00;101535.34;4951022;28;20119;-69
2022/04/19 02:00:43;;;;;;;17.15;11.10;;;;;;;3.31;100.00;101545.19;4967696;28;20123;-69
2022/04/19 02:03:08;;;;;;;21.50;12.13;;;;;;;3.19;100.00;101535.72;4952016;28;20143;-69
2022/04/19 02:05:34;;;;;;;20.73;11.25;;;;;;;3.17;100.00;101543.88;4952036;28;20116;-69
2022/04/19 02:07:59;;;;;;;19.38;12.15;;;;;;;3.14;100.00;101538.84;4969020;28;20025;-67
2022/04/19 02:10:25;;;;;;;23.33;12.63;;;;;;;3.17;100.00;101543.03;4948198;28;20083;-68
2022/04/19 02:12:51;;;;;;;20.85;12.77;;;;;;;3.16;100.00;101536.00;4964672;28;20164;-69
2022/04/19 02:15:17;;;;;;;17.95;12.40;;;;;;;3.14;100.00;101536.16;4956240;28;20083;-69
2022/04/19 02:17:47;;;;;;;19.55;12.40;;;;;;;3.05;100.00;101537.91;4965431;28;20164;-69
2022/04/19 02:20:14;;;;;;;22.85;13.35;;;;;;;3.03;100.00;101537.19;4952583;28;21154;-69
2022/04/19 02:22:40;;;;;;;23.13;12.43;;;;;;;2.98;100.00;101534.13;4968864;28;20161;-69
2022/04/19 02:25:07;;;;;;;19.95;12.57;;;;;;;2.95;100.00;101531.78;4955079;28;20057;-69
2022/04/19 02:27:33;;;;;;;22.65;13.52;;;;;;;2.94;100.00;101539.91;4966606;28;20149;-69
2022/04/19 02:30:03;;;;;;;26.20;13.75;;;;;;;2.92;100.00;101544.53;4966981;28;20033;-69
2022/04/19 02:32:29;;;;;;;30.50;13.63;;;;;;;2.96;100.00;101544.09;4952308;28;20108;-68
2022/04/19 02:34:54;;;;;;;23.38;13.07;;;;;;;2.96;100.00;101546.75;4965662;28;20057;-68
2022/04/19 02:37:20;;;;;;;21.52;13.88;;;;;;;2.95;100.00;101549.53;4951760;28;20065;-68
2022/04/19 02:39:49;;;;;;;22.42;14.10;;;;;;;2.97;100.00;101545.75;4967064;28;20045;-68
2022/04/19 02:42:16;;;;;;;23.98;13.18;;;;;;;2.96;100.00;101552.09;4953408;28;20050;-68
2022/04/19 02:44:41;;;;;;;21.73;13.20;;;;;;;2.99;100.00;101545.63;4966688;28;20044;-68
2022/04/19 02:47:07;;;;;;;24.83;13.20;;;;;;;2.96;100.00;101551.25;4949732;28;20037;-69
2022/04/19 02:49:33;;;;;;;21.85;12.88;;;;;;;2.93;100.00;101547.03;4968400;28;20077;-69
2022/04/19 02:51:59;;;;;;;21.58;13.18;;;;;;;2.95;100.00;101549.53;4957831;28;20046;-69
2022/04/19 02:54:24;;;;;;;25.88;13.13;;;;;;;2.92;100.00;101545.38;4952413;28;20057;-69
2022/04/19 02:56:50;;;;;;;24.23;12.45;;;;;;;2.90;100.00;101543.84;4970148;28;20037;-69
2022/04/19 02:59:15;;;;;;;25.00;12.93;;;;;;;2.91;100.00;101546.34;4939514;28;20048;-69
2022/04/19 03:01:40;;;;;;;23.50;13.27;;;;;;;2.88;100.00;101546.66;4964381;28;20087;-70
2022/04/19 03:04:06;;;;;;;19.02;12.25;;;;;;;2.83;100.00;101540.91;4951899;28;20046;-69
2022/04/19 03:06:31;;;;;;;20.45;12.65;;;;;;;2.80;100.00;101551.84;4967702;28;20068;-69
2022/04/19 03:08:57;;;;;;;26.23;13.98;;;;;;;2.76;100.00;101551.28;4959277;28;20061;-69
2022/04/19 03:11:22;;;;;;;20.10;12.68;;;;;;;2.79;100.00;101552.84;4955831;28;20057;-69
2022/04/19 03:13:48;;;;;;;25.35;14.60;;;;;;;2.91;100.00;101546.34;4966647;28;20032;-69
2022/04/19 03:16:14;;;;;;;24.13;13.90;;;;;;;3.04;100.00;101549.50;4948847;28;20050;-69
2022/04/19 03:18:43;;;;;;;25.98;14.48;;;;;;;3.16;100.00;101549.31;4967095;28;20128;-68
2022/04/19 03:21:12;;;;;;;20.58;13.55;;;;;;;3.18;100.00;101550.03;4951611;28;23420;-68
2022/04/19 03:29:07;;;;;;;25.63;14.52;;;;;;;3.28;100.00;101561.47;4966992;28;20098;-68
2022/04/19 03:31:34;;;;;;;23.55;12.52;;;;;;;3.27;100.00;101549.16;4948588;28;20062;-69
2022/04/19 03:34:03;;;;;;;24.45;13.95;;;;;;;3.33;100.00;101552.06;4967775;28;20036;-69
2022/04/19 03:36:29;;;;;;;23.67;14.02;;;;;;;3.36;100.00;101558.91;4966148;28;20064;-69
2022/04/19 03:38:55;;;;;;;20.67;12.68;;;;;;;3.41;100.00;101551.31;4969389;28;20147;-69
2022/04/19 03:41:21;;;;;;;23.63;12.85;;;;;;;3.47;100.00;101550.69;4964974;28;22574;-69
2022/04/19 03:43:46;;;;;;;21.92;13.35;;;;;;;3.45;100.00;101542.03;4936975;28;20148;-68
2022/04/19 03:46:11;;;;;;;19.30;12.25;;;;;;;3.44;100.00;101548.38;4966758;28;20120;-68
2022/04/19 03:48:37;;;;;;;22.13;12.85;;;;;;;3.38;100.00;101551.63;4949927;28;20057;-68
2022/04/19 03:51:03;;;;;;;20.55;12.38;;;;;;;3.29;100.00;101548.00;4968205;28;20061;-68
2022/04/19 03:53:30;;;;;;;20.38;11.18;;;;;;;3.26;100.00;101547.47;4951355;28;20143;-68
2022/04/19 03:55:55;;;;;;;19.58;12.40;;;;;;;3.24;100.00;101549.44;4970971;28;20029;-69
2022/04/19 03:58:21;;;;;;;21.20;13.25;;;;;;;3.20;100.00;101554.22;4980728;28;20433;-71
2022/04/19 04:00:48;;;;;;;20.80;12.70;;;;;;;3.15;100.00;101553.81;4950232;28;20054;-71
2022/04/19 04:03:13;;;;;;;25.52;13.60;;;;;;;3.15;100.00;101545.00;4966053;28;20165;-71
2022/04/19 04:05:39;;;;;;;22.92;13.50;;;;;;;3.17;100.00;101551.03;4949777;28;20054;-71
2022/04/19 04:08:04;;;;;;;22.65;12.35;;;;;;;3.11;100.00;101555.09;4969918;28;20457;-71
2022/04/19 04:10:30;;;;;;;20.20;11.85;;;;;;;2.99;100.00;101554.47;4948720;28;20054;-72
2022/04/19 04:12:57;;;;;;;22.67;12.85;;;;;;;2.92;100.00;101561.34;4966768;28;20030;-72
2022/04/19 04:15:22;;;;;;;26.27;12.93;;;;;;;2.86;100.00;101561.91;4951875;28;20077;-72
2022/04/19 04:17:48;;;;;;;23.83;13.35;;;;;;;2.82;100.00;101560.53;4950830;28;22451;-72
2022/04/19 04:20:14;;;;;;;23.20;13.35;;;;;;;2.81;100.00;101564.19;4964948;28;20080;-71
2022/04/19 04:22:39;;;;;;;23.70;12.48;;;;;;;2.82;100.00;101564.03;4952446;28;20068;-72
2022/04/19 04:25:05;;;;;;;23.88;13.52;;;;;;;2.85;100.00;101568.22;4965251;28;23406;-72
2022/04/19 04:27:30;;;;;;;27.23;13.73;;;;;;;2.83;100.00;101564.88;4953154;28;20054;-71
2022/04/19 04:29:55;;;;;;;26.20;13.10;;;;;;;2.77;100.00;101566.31;4966250;28;20207;-72
2022/04/19 04:32:21;;;;;;;21.38;12.77;;;;;;;2.80;100.00;101562.50;4965451;28;20057;-71
2022/04/19 04:34:46;;;;;;;23.85;12.95;;;;;;;2.74;100.00;101565.72;4969469;28;20076;-71
2022/04/19 04:37:12;;;;;;;24.02;13.07;;;;;;;2.73;100.00;101572.88;4968795;28;20061;-72
2022/04/19 04:39:37;;;;;;;26.38;14.73;;;;;;;2.83;100.00;101573.69;4955889;28;20049;-71
2022/04/19 04:42:04;;;;;;;29.48;14.98;;;;;;;2.83;100.00;101568.34;4983586;28;20107;-71
2022/04/19 04:44:30;;;;;;;31.90;15.38;;;;;;;2.81;100.00;101566.84;4954038;28;20144;-71
2022/04/19 04:49:39;;;;;;;;;;;;;;;2.92;100.00;101572.00;4952397;28;20064;-71
2022/04/19 04:52:07;;;;;;;24.65;13.85;;;;;;;3.00;100.00;101572.09;4970598;28;19921;-71
2022/04/19 04:54:34;;;;;;;28.80;14.45;;;;;;;3.04;100.00;101568.16;4960398;28;20086;-71
2022/04/19 04:57:00;;;;;;;26.17;14.57;;;;;;;3.10;100.00;101570.22;4968566;28;20044;-71
2022/04/19 04:59:26;;;;;;;30.42;15.07;;;;;;;3.21;100.00;101571.03;4962723;28;22643;-71
2022/04/19 05:01:51;;;;;;;26.08;15.27;;;;;;;3.32;100.00;101570.84;4960173;28;20053;-72
2022/04/19 05:04:17;;;;;;;25.23;14.85;;;;;;;3.40;100.00;101565.59;4983752;28;20056;-71
2022/04/19 05:06:42;;;;;;;30.95;16.42;;;;;;;3.47;100.00;101571.19;4953825;28;20069;-72
2022/04/19 05:09:08;;;;;;;28.45;15.75;;;;;;;3.53;100.00;101571.44;4970120;28;20526;-72
2022/04/19 05:11:33;;;;;;;30.90;15.88;;;;;;;3.66;100.00;101575.56;4951180;28;20045;-72
2022/04/19 05:13:59;;;;;;;25.00;14.75;;;;;;;3.82;100.00;101575.72;4967042;28;20075;-73
2022/04/19 05:16:24;;;;;;;32.83;17.00;;;;;;;4.18;100.00;101570.44;4952496;28;20086;-72
2022/04/19 05:18:50;;;;;;;33.00;17.30;;;;;;;5.02;100.00;101568.03;4968777;28;20034;-72
2022/04/19 05:21:15;;;;;;;28.08;16.75;;;;;;;5.92;100.00;101579.06;4966456;28;20033;-73
2022/04/19 05:23:40;;;;;;;27.73;15.55;;;;;;;6.53;100.00;101568.06;4950460;28;20054;-72
2022/04/19 05:26:06;;;;;;;25.20;13.55;;;;;;;7.01;100.00;101574.34;4964667;28;20080;-73
2022/04/19 05:28:31;;;;;;;28.85;13.95;;;;;;;7.48;100.00;101581.56;4951090;28;20114;-73
2022/04/19 05:30:57;;;;;;;24.23;12.57;;;;;;;7.66;100.00;101579.47;4967045;28;20486;-73
2022/04/19 05:33:22;;;;;;;23.10;12.73;;;;;;;7.71;100.00;101587.78;4952574;28;20076;-71
2022/04/19 05:35:48;;;;;;;21.45;12.57;;;;;;;7.96;100.00;101584.97;4967339;28;20130;-71
2022/04/19 05:38:13;;;;;;;18.85;12.40;;;;;;;8.54;100.00;101583.56;4949905;28;20057;-72
2022/04/19 05:40:39;;;;;;;25.02;13.38;;;;;;;9.33;100.00;101591.97;4968749;28;20037;-72
2022/04/19 05:43:05;;;;;;;23.02;11.27;;;;;;;10.46;100.00;101599.50;4968974;28;20042;-71
2022/04/19 05:45:30;;;;;;;20.13;11.20;;;;;;;11.71;100.00;101597.78;4954078;28;20052;-72
2022/04/19 05:47:56;;;;;;;19.90;11.52;;;;;;;12.29;83.24;101605.47;4969071;28;20051;-72
2022/04/19 05:50:21;;;;;;;18.25;10.50;;;;;;;12.68;80.63;101595.72;4953643;28;20502;-72
2022/04/19 05:52:47;;;;;;;16.33;9.73;;;;;;;13.24;73.30;101601.50;4966690;28;20061;-74
2022/04/19 05:55:12;;;;;;;16.40;10.55;;;;;;;13.76;65.08;101604.22;4953849;28;20143;-72
2022/04/19 05:57:37;;;;;;;18.75;9.82;;;;;;;14.13;61.31;101612.59;4968162;28;20042;-72
2022/04/19 06:00:04;;;;;;;16.13;10.25;;;;;;;14.66;61.39;101604.09;4969929;28;20038;-72
2022/04/19 06:05:13;;;;;;;19.08;9.98;;;;;;;15.61;54.83;101606.47;4969088;28;20072;-72
2022/04/19 06:07:47;;;;;;;17.83;10.23;;;;;;;15.65;53.23;101607.66;4950255;28;20049;-72
2022/04/19 06:10:14;;;;;;;19.08;10.55;;;;;;;15.42;53.14;101606.47;4966927;28;20722;-72
2022/04/19 06:12:40;;;;;;;15.82;9.85;;;;;;;15.76;50.63;101615.09;4949421;28;20721;-72
2022/04/19 06:15:06;;;;;;;20.38;10.48;;;;;;;15.92;51.56;101608.19;4972101;28;20236;-72
2022/04/19 06:17:32;;;;;;;18.95;10.43;;;;;;;16.36;49.57;101609.66;4950109;28;20065;-72
2022/04/19 06:20:01;;;;;;;20.67;10.65;;;;;;;15.97;50.41;101609.16;4967041;28;20040;-72
2022/04/19 06:22:29;;;;;;;18.45;10.25;;;;;;;16.29;49.24;101606.22;4954453;28;20077;-72
2022/04/19 06:24:57;;;;;;;19.83;8.68;;;;;;;16.78;48.38;101620.53;4952783;28;20052;-72
2022/04/19 06:27:24;;;;;;;15.95;9.00;;;;;;;17.17;48.08;101615.44;4968477;28;20044;-72
2022/04/19 06:29:53;;;;;;;17.20;9.38;;;;;;;16.79;48.60;101613.19;4940572;28;20746;-72
2022/04/19 06:32:19;;;;;;;19.92;9.93;;;;;;;17.16;47.13;101616.47;4967740;28;20132;-72
2022/04/19 06:34:44;;;;;;;15.70;9.30;;;;;;;17.73;45.69;101608.44;4951198;28;20056;-72
2022/04/19 06:37:10;;;;;;;19.88;9.38;;;;;;;17.76;45.40;101616.19;4968468;28;20050;-72
2022/04/19 06:39:36;;;;;;;17.73;9.95;;;;;;;18.45;44.35;101610.63;4956956;28;20554;-72
2022/04/19 06:42:01;;;;;;;17.88;8.73;;;;;;;18.64;44.01;101613.97;4967351;28;20072;-72
2022/04/19 06:44:27;;;;;;;15.60;9.00;;;;;;;18.14;44.00;101617.44;4964109;28;20080;-72
2022/04/19 06:46:52;;;;;;;16.42;9.45;;;;;;;18.96;43.31;101611.47;4955228;28;20050;-72
2022/04/19 06:49:18;;;;;;;18.65;9.30;;;;;;;19.04;42.12;101615.69;4965690;28;20053;-72
2022/04/19 06:51:44;;;;;;;16.02;9.23;;;;;;;18.17;43.56;101621.56;4954155;28;20045;-72
2022/04/19 06:54:11;;;;;;;14.90;9.13;;;;;;;18.63;43.79;101625.94;4958959;28;20038;-72
2022/04/19 06:56:36;;;;;;;16.52;9.18;;;;;;;19.28;43.19;101625.31;4943328;28;20403;-72
2022/04/19 06:59:02;;;;;;;16.08;9.10;;;;;;;18.49;43.63;101621.88;4961666;28;20038;-72
2022/04/19 07:01:27;;;;;;;16.08;8.75;;;;;;;19.23;42.71;101622.50;4959754;28;20061;-72
2022/04/19 07:03:53;;;;;;;15.38;8.95;;;;;;;19.07;42.17;101628.84;4959594;28;20030;-72
2022/04/19 07:06:19;;;;;;;13.45;8.75;;;;;;;18.47;43.74;101624.03;4961792;28;20029;-72
2022/04/19 07:08:45;;;;;;;12.35;8.20;;;;;;;18.78;43.52;101631.69;4943986;28;20160;-71
2022/04/19 07:11:16;;;;;;;16.95;9.68;;;;;;;18.07;44.14;101624.94;4963794;28;20042;-73
2022/04/19 07:13:43;;;;;;;12.95;9.05;;;;;;;18.43;44.00;101623.69;4946823;28;20705;-72
2022/04/19 07:16:08;;;;;;;13.80;9.10;;;;;;;18.86;43.03;101632.34;4961242;28;20080;-72
2022/04/19 07:18:33;;;;;;;14.27;8.30;;;;;;;18.38;44.40;101625.50;4948865;28;20053;-72
2022/04/19 07:26:45;;;;;;;12.43;7.72;;;;;;;19.35;41.64;101625.16;4962149;28;20131;-72
2022/04/19 07:29:15;;;;;;;;;;;;;;;19.86;39.11;101628.53;4948498;28;20144;-72
2022/04/19 07:31:43;;;;;;;7.63;5.07;;;;;;;19.53;38.45;101634.94;4967892;28;19917;-72
2022/04/19 07:34:09;;;;;;;10.73;5.57;;;;;;;19.09;38.50;101634.88;4965507;28;20048;-72
2022/04/19 07:36:39;;;;;;;11.18;5.40;;;;;;;18.93;39.31;101647.47;4936833;28;20054;-72
2022/04/19 07:39:09;;;;;;;9.75;5.65;;;;;;;19.53;39.77;101641.22;4968240;28;20026;-72
2022/04/19 07:41:35;;;;;;;10.80;5.53;;;;;;;20.27;37.61;101638.00;4936191;28;20076;-72
2022/04/19 07:44:01;;;;;;;14.10;6.32;;;;;;;20.11;38.03;101641.69;4964851;28;20136;-72
2022/04/19 07:46:28;;;;;;;10.10;5.82;;;;;;;20.11;37.52;101638.94;4961855;28;20169;-73
2022/04/19 07:48:53;;;;;;;9.07;5.63;;;;;;;20.29;37.90;101634.19;4968903;28;20158;-73
2022/04/19 07:51:19;;;;;;;11.75;5.55;;;;;;;21.26;36.58;101646.75;4953195;28;20057;-73
2022/04/19 07:53:44;;;;;;;9.45;5.10;;;;;;;21.34;34.95;101643.56;4970578;28;20925;-73
2022/04/19 07:56:10;;;;;;;8.70;4.80;;;;;;;20.59;35.09;101645.44;4964638;28;20060;-73
2022/04/19 07:58:35;;;;;;;6.40;4.10;;;;;;;19.61;36.35;101650.06;4951421;28;20135;-72
2022/04/19 08:01:01;;;;;;;7.10;4.00;;;;;;;19.65;34.55;101657.53;4965309;28;20057;-73
2022/04/19 08:03:27;;;;;;;10.73;4.57;;;;;;;19.48;35.81;101648.53;4952057;28;20050;-73
2022/04/19 08:05:52;;;;;;;5.35;3.50;;;;;;;19.52;34.59;101649.69;4965209;28;20073;-73
2022/04/19 08:08:18;;;;;;;5.80;3.72;;;;;;;19.38;34.89;101645.69;4950252;28;20084;-73
2022/04/19 08:10:53;;;;;;;7.80;3.47;;;;;;;19.59;35.23;101647.59;4969014;28;20095;-73
2022/04/19 08:13:18;;;;;;;5.60;2.80;;;;;;;19.17;34.88;101656.31;4956033;28;20099;-73
2022/04/19 08:15:44;;;;;;;5.57;3.22;;;;;;;19.31;34.73;101651.31;4972556;28;22747;-73
2022/04/19 08:18:13;;;;;;;4.45;2.60;;;;;;;18.84;33.16;101647.03;4954875;28;20164;-73
2022/04/19 08:20:40;;;;;;;4.55;2.15;;;;;;;18.76;33.00;101644.75;4958296;28;20060;-74
2022/04/19 08:23:07;;;;;;;3.47;1.90;;;;;;;18.78;33.24;101648.06;4968597;28;20052;-74
2022/04/19 08:25:34;;;;;;;5.78;2.70;;;;;;;19.11;33.08;101651.84;4956437;28;20060;-74
2022/04/19 08:27:59;;;;;;;4.68;2.28;;;;;;;19.37;32.91;101655.75;4976196;28;20519;-73
2022/04/19 08:30:25;;;;;;;3.63;2.08;;;;;;;19.48;31.26;101653.97;4954700;28;20054;-72
2022/04/19 08:32:50;;;;;;;4.82;1.58;;;;;;;19.09;32.03;101653.97;4970437;28;20053;-73
2022/04/19 08:35:19;;;;;;;3.28;1.90;;;;;;;18.69;33.07;101651.41;4953857;28;20346;-74
2022/04/19 08:37:45;;;;;;;5.10;2.35;;;;;;;18.42;34.25;101643.03;4972303;28;20224;-74
2022/04/19 08:40:12;;;;;;;4.50;2.42;;;;;;;18.92;34.28;101647.69;4973327;28;23656;-74
2022/04/19 08:42:39;;;;;;;4.50;2.00;;;;;;;18.63;34.96;101655.13;4958941;28;20612;-73
2022/04/19 08:45:07;;;;;;;4.35;2.22;;;;;;;18.78;34.80;101658.97;4970525;28;20048;-74
2022/04/19 08:47:35;;;;;;;5.75;2.15;;;;;;;18.83;34.96;101653.59;4959180;28;20034;-73
2022/04/19 08:50:01;;;;;;;4.40;2.28;;;;;;;19.16;35.08;101642.88;4971561;28;20492;-73
2022/04/19 08:52:27;;;;;;;4.88;2.45;;;;;;;19.10;34.80;101660.28;4954206;28;20689;-73
2022/04/19 08:57:38;;;;;;;4.93;2.50;;;;;;;19.16;35.07;101657.34;4956161;28;20139;-74
2022/04/19 09:00:06;;;;;;;9.88;2.80;;;;;;;18.92;35.42;101644.97;4970737;28;20033;-74
2022/04/19 09:02:33;;;;;;;5.22;2.67;;;;;;;18.69;36.48;101649.50;4970119;28;20037;-74
2022/04/19 09:05:21;;;;;;;6.05;2.53;;;;;;;18.43;35.87;101648.25;4955958;28;20041;-74
2022/04/19 09:07:52;;;;;;;4.95;2.55;;;;;;;18.82;36.15;101649.22;4967331;28;20088;-73
2022/04/19 09:10:27;;;;;;;5.68;2.53;;;;;;;18.91;36.71;101652.34;4959185;28;20057;-73
2022/04/19 09:13:10;;;;;;;5.38;2.72;;;;;;;18.17;36.99;101643.38;4971636;28;20033;-74
2022/04/19 09:15:37;;;;;;;5.60;3.17;;;;;;;18.01;36.95;101648.56;4955898;28;20130;-74
2022/04/19 09:18:04;;;;;;;5.80;2.70;;;;;;;18.57;37.07;101646.84;4973050;28;20136;-74
2022/04/19 09:20:31;;;;;;;4.95;2.97;;;;;;;18.01;37.45;101647.75;4935066;28;20049;-73
2022/04/19 09:23:04;;;;;;;5.68;2.50;;;;;;;17.70;38.21;101644.34;4968627;28;21168;-73
2022/04/19 09:25:30;;;;;;;;;;;;;;;17.78;39.08;101649.44;4950027;28;20140;-75
2022/04/19 09:27:57;;;;;;;5.43;3.10;;;;;;;17.86;38.23;101646.34;4968050;28;19917;-74
2022/04/19 09:30:30;;;;;;;6.28;3.30;;;;;;;18.22;38.85;101651.69;4965300;28;20128;-75
2022/04/19 09:33:04;;;;;;;4.80;2.65;;;;;;;18.57;37.82;101646.84;4970911;28;20041;-74
2022/04/19 09:35:33;;;;;;;6.78;3.17;;;;;;;18.82;37.64;101651.94;4969639;28;20065;-74
2022/04/19 09:37:58;;;;;;;5.00;2.83;;;;;;;19.00;37.06;101650.03;4941802;28;20050;-74
2022/04/19 09:40:28;;;;;;;5.53;2.67;;;;;;;18.96;36.62;101629.78;4964914;28;20077;-74
2022/04/19 09:42:57;;;;;;;4.47;2.35;;;;;;;18.30;37.47;101635.72;4951390;28;20528;-74
2022/04/19 09:45:27;;;;;;;5.57;2.63;;;;;;;18.28;36.69;101631.59;4966709;28;20116;-74
2022/04/19 09:47:52;;;;;;;5.00;2.33;;;;;;;18.25;37.79;101635.66;4958863;28;20054;-74
2022/04/19 09:50:18;;;;;;;5.68;2.58;;;;;;;18.13;37.90;101634.88;4971787;28;20691;-74
2022/04/19 09:52:48;;;;;;;5.95;2.47;;;;;;;18.02;39.03;101633.03;4951317;28;20084;-74
2022/04/19 09:55:15;;;;;;;4.95;2.70;;;;;;;18.16;38.67;101628.94;4965470;28;20040;-75
2022/04/19 09:57:41;;;;;;;4.53;2.50;;;;;;;18.32;38.55;101632.75;4970466;28;20123;-75
2022/04/19 10:00:09;;;;;;;5.40;2.10;;;;;;;18.24;37.88;101633.97;4967221;28;20181;-75
2022/04/19 10:08:19;;;;;;;10.05;2.17;;;;;;;18.00;38.61;101632.44;4966935;28;20067;-73
2022/04/19 10:10:46;;;;;;;3.80;2.40;;;;;;;17.80;38.54;101614.63;4955683;28;22619;-73
2022/04/19 10:13:13;;;;;;;4.15;2.00;;;;;;;18.55;37.88;101634.53;4970297;28;20039;-75
2022/04/19 10:15:40;;;;;;;5.65;2.35;;;;;;;18.82;36.72;101615.63;4950419;28;20058;-75
2022/04/19 10:18:07;;;;;;;4.50;2.58;;;;;;;18.59;37.65;101622.03;4968738;28;20029;-75
2022/04/19 10:21:02;;;;;;;5.72;2.40;;;;;;;18.44;38.00;101629.97;4957812;28;20188;-75
2022/04/19 10:23:41;;;;;;;11.95;3.30;;;;;;;18.32;38.33;101628.16;4968796;28;20053;-75
2022/04/19 10:26:21;;;;;;;7.28;3.53;;;;;;;18.81;38.15;101631.19;4950576;28;20067;-75
2022/04/19 10:28:49;;;;;;;4.68;2.55;;;;;;;18.98;38.18;101627.59;4977314;28;20045;-76
2022/04/19 10:31:24;;;;;;;4.97;2.85;;;;;;;19.31;37.41;101624.81;4972724;28;20462;-76
2022/04/19 10:33:53;;;;;;;7.32;3.13;;;;;;;19.41;37.20;101631.47;4950597;28;20212;-76
2022/04/19 10:36:40;;;;;;;6.80;2.83;;;;;;;19.15;37.61;101617.47;4966312;28;20199;-76
2022/04/19 10:39:11;;;;;;;4.63;2.88;;;;;;;18.97;37.56;101625.97;4948545;28;20054;-75
2022/04/19 10:41:55;;;;;;;4.85;2.83;;;;;;;18.71;37.92;101620.09;4963297;28;24209;-75
2022/04/19 10:44:48;;;;;;;6.97;3.20;;;;;;;19.21;37.29;101627.41;4944510;28;20496;-75
2022/04/19 10:47:15;;;;;;;5.72;2.92;;;;;;;18.81;37.42;101620.28;4962226;28;20025;-76
2022/04/19 10:49:53;;;;;;;6.95;3.05;;;;;;;18.90;37.30;101614.38;4946663;28;20119;-75
2022/04/19 10:52:37;;;;;;;6.30;2.88;;;;;;;19.04;36.85;101621.97;4962014;28;20069;-75
2022/04/19 10:55:23;;;;;;;4.35;2.63;;;;;;;19.01;36.68;101616.19;4945660;28;20054;-76
2022/04/19 11:00:48;;;;;;;6.03;2.47;;;;;;;19.27;38.00;101607.28;4951828;28;20483;-76
2022/04/19 11:03:17;;;;;;;4.65;2.70;;;;;;;19.55;36.05;101609.03;4962797;28;20049;-76
2022/04/19 11:05:50;;;;;;;3.65;2.20;;;;;;;19.47;36.58;101605.88;4944293;28;20795;-76
2022/04/19 11:08:25;;;;;;;5.95;2.58;;;;;;;19.75;36.37;101608.44;4961612;28;20080;-76
2022/04/19 11:10:52;;;;;;;3.90;2.35;;;;;;;19.81;34.35;101597.59;4945309;28;20063;-76
2022/04/19 11:13:29;;;;;;;3.20;1.75;;;;;;;20.21;34.55;101608.94;4960505;28;20866;-76
2022/04/19 11:16:03;;;;;;;4.40;2.50;;;;;;;19.60;35.50;101613.72;4949058;28;20501;-75
2022/04/19 11:18:55;;;;;;;4.32;1.73;;;;;;;19.73;35.33;101604.34;4960522;28;20096;-75
2022/04/19 11:21:53;;;;;;;6.00;2.22;;;;;;;19.89;35.19;101613.53;4943156;28;22798;-75
2022/04/19 11:24:56;;;;;;;6.40;2.50;;;;;;;19.93;35.49;101603.72;4958881;28;20588;-75
2022/04/19 11:27:22;;;;;;;6.65;2.78;;;;;;;20.49;35.43;101612.47;4946005;28;20054;-75
2022/04/19 11:29:51;;;;;;;6.90;2.80;;;;;;;20.03;35.23;101603.84;4969228;28;20048;-75
2022/04/19 11:32:24;;;;;;;6.95;2.90;;;;;;;20.49;34.46;101590.59;4950481;28;20563;-75
2022/04/19 11:35:04;;;;;;;5.03;2.40;;;;;;;20.48;34.29;101610.84;4970753;28;20026;-75
2022/04/19 11:37:30;;;;;;;5.60;2.63;;;;;;;20.16;34.74;101611.63;4964208;28;20068;-75
2022/04/19 11:48:29;;;;;;;6.53;2.80;;;;;;;19.90;34.69;101598.78;4960181;28;20042;-76
2022/04/19 11:51:24;;;;;;;11.27;2.40;;;;;;;19.96;35.21;101609.50;4955438;28;20053;-76
2022/04/19 11:53:50;;;;;;;5.15;2.60;;;;;;;20.24;35.29;101608.44;4954657;28;20072;-76
2022/04/19 11:56:16;;;;;;;5.15;2.72;;;;;;;20.53;35.83;101616.38;4952623;28;20080;-76
2022/04/19 11:58:43;;;;;;;5.13;2.65;;;;;;;21.14;33.85;101605.06;4967129;28;20046;-76